Time;durP1;ratioP1;P1;durP2;ratioP2;P2;SDS_P1;SDS_P2;PMS_P1;PMS_P2;Temp;Humidity;BMP_temperature;BMP_pressure;BME280_temperature;BME280_humidity;BME280_pressure;Samples;Min_cycle;Max_cycle;Signal;HPM_P1;HPM_P2
2023/03/21 00:01:53;;;;;;;8.20;5.37;;;;;;;5.30;100.00;96442.19;5063616;28;20530;-75
2023/03/21 00:04:22;;;;;;;7.30;6.60;;;;;;;5.28;100.00;96417.34;5078631;28;20470;-75
2023/03/21 00:06:49;;;;;;;9.57;7.00;;;;;;;5.32;100.00;96420.91;5091286;28;21021;-75
2023/03/21 00:09:19;;;;;;;7.50;6.63;;;;;;;4.92;100.00;96355.06;5091167;28;20514;-75
2023/03/21 00:11:47;;;;;;;8.27;6.10;;;;;;;5.33;100.00;96436.34;5084196;28;20524;-75
2023/03/21 00:14:17;;;;;;;9.47;6.60;;;;;;;5.34;100.00;96430.06;5073125;28;20439;-75
2023/03/21 00:16:49;;;;;;;8.03;6.57;;;;;;;5.22;100.00;96408.78;5084004;28;20431;-75
2023/03/21 00:19:19;;;;;;;9.53;7.20;;;;;;;5.27;100.00;96427.03;5073837;28;20423;-75
2023/03/21 00:21:46;;;;;;;9.23;7.40;;;;;;;5.14;100.00;96406.06;5084433;28;20484;-75
2023/03/21 00:24:31;;;;;;;10.40;6.90;;;;;;;5.07;100.00;96405.63;5049805;28;20519;-75
2023/03/21 00:26:58;;;;;;;8.47;7.40;;;;;;;5.32;100.00;96434.81;5094657;28;20431;-75
2023/03/21 00:29:50;;;;;;;9.30;7.43;;;;;;;4.95;100.00;96358.97;5063193;28;20473;-76
2023/03/21 00:32:18;;;;;;;11.53;8.90;;;;;;;5.14;100.00;96391.09;5077332;28;20439;-76
2023/03/21 00:34:47;;;;;;;9.50;7.17;;;;;;;5.43;100.00;96418.91;5076929;28;20873;-76
2023/03/21 00:37:32;;;;;;;9.93;8.37;;;;;;;5.39;100.00;96413.47;5094809;28;20434;-76
2023/03/21 00:39:58;;;;;;;8.37;7.53;;;;;;;5.23;100.00;96391.22;5094593;28;20455;-76
2023/03/21 00:42:26;;;;;;;9.30;7.90;;;;;;;5.25;100.00;96395.09;5060364;28;20485;-76
2023/03/21 00:44:53;;;;;;;8.03;6.80;;;;;;;5.57;100.00;96427.53;5094910;28;20793;-76
2023/03/21 00:47:20;;;;;;;10.37;8.37;;;;;;;4.97;100.00;96334.03;5077625;28;20942;-76
2023/03/21 00:49:48;;;;;;;8.87;8.07;;;;;;;5.43;100.00;96395.31;5095636;28;20444;-77
2023/03/21 00:52:17;;;;;;;10.27;7.37;;;;;;;5.26;100.00;96367.81;5076925;28;20447;-76
2023/03/21 00:55:00;;;;;;;9.50;7.43;;;;;;;5.54;100.00;96415.81;5061335;28;20454;-76
2023/03/21 00:57:27;;;;;;;9.13;7.77;;;;;;;5.08;100.00;96349.56;5076711;28;20436;-77
2023/03/21 01:00:09;;;;;;;7.10;6.37;;;;;;;5.26;100.00;96394.03;5078704;28;20465;-76
2023/03/21 01:02:36;;;;;;;8.43;6.83;;;;;;;5.18;100.00;96372.94;5097361;28;20438;-76
2023/03/21 01:05:04;;;;;;;10.63;7.07;;;;;;;5.17;100.00;96368.78;5097336;28;20457;-76
2023/03/21 01:07:31;;;;;;;9.20;7.50;;;;;;;5.26;100.00;96367.03;5096725;28;20446;-76
2023/03/21 01:09:57;;;;;;;9.13;7.67;;;;;;;5.15;100.00;96369.06;5096627;28;20460;-76
2023/03/21 01:12:24;;;;;;;9.50;8.23;;;;;;;4.99;100.00;96344.22;5082150;28;20431;-76
2023/03/21 01:14:51;;;;;;;8.00;6.10;;;;;;;5.25;100.00;96407.44;5059821;28;20467;-76
2023/03/21 01:17:17;;;;;;;10.77;8.00;;;;;;;4.97;100.00;96411.84;5076468;28;20427;-76
2023/03/21 01:19:44;;;;;;;9.33;6.60;;;;;;;4.83;100.00;96380.38;5087610;28;20498;-76
2023/03/21 01:22:18;;;;;;;8.40;7.70;;;;;;;4.93;100.00;96363.69;5076375;28;20535;-76
2023/03/21 01:24:45;;;;;;;7.00;5.80;;;;;;;4.70;100.00;96342.63;5075875;28;20994;-76
2023/03/21 01:27:24;;;;;;;10.23;7.43;;;;;;;4.57;100.00;96345.97;5061029;28;20442;-76
2023/03/21 01:29:51;;;;;;;7.57;6.80;;;;;;;4.20;100.00;96298.94;5059302;28;20448;-76
2023/03/21 01:32:17;;;;;;;8.20;6.07;;;;;;;4.72;100.00;96369.28;5076052;28;20423;-76
2023/03/21 01:34:44;;;;;;;8.00;7.17;;;;;;;4.65;100.00;96352.38;5076172;28;20435;-76
2023/03/21 01:37:11;;;;;;;8.47;7.20;;;;;;;4.83;100.00;96390.84;5076944;28;20431;-76
2023/03/21 01:39:44;;;;;;;7.73;5.70;;;;;;;4.51;100.00;96347.09;5062544;28;20455;-76
2023/03/21 01:42:14;;;;;;;8.50;6.60;;;;;;;4.65;100.00;96363.63;5061755;28;20470;-76
2023/03/21 01:44:51;;;;;;;7.33;6.20;;;;;;;4.80;100.00;96393.25;5060483;28;20475;-76
2023/03/21 01:47:18;;;;;;;9.90;7.60;;;;;;;4.56;100.00;96369.81;5075917;28;20457;-76
2023/03/21 01:49:50;;;;;;;6.77;5.43;;;;;;;4.18;100.00;96354.16;5093964;28;20868;-76
2023/03/21 01:52:25;;;;;;;5.30;4.80;;;;;;;3.73;100.00;96321.56;5075601;28;20834;-76
2023/03/21 01:55:12;;;;;;;10.17;6.80;;;;;;;3.72;100.00;96344.31;5075224;28;20435;-76
2023/03/21 01:57:56;;;;;;;7.90;6.10;;;;;;;3.95;100.00;96375.94;5059505;28;20447;-76
2023/03/21 02:00:52;;;;;;;9.37;6.80;;;;;;;3.97;100.00;96361.50;5079847;28;20434;-76
2023/03/21 02:03:48;;;;;;;7.73;6.13;;;;;;;3.95;100.00;96350.56;5075244;28;20944;-76
2023/03/21 02:06:54;;;;;;;8.33;6.50;;;;;;;3.98;100.00;96325.66;5075632;28;20463;-76
2023/03/21 02:09:33;;;;;;;8.97;7.10;;;;;;;4.21;100.00;96369.28;5075324;28;20865;-76
2023/03/21 02:12:01;;;;;;;8.70;6.73;;;;;;;4.15;100.00;96339.81;5075692;28;20443;-76
2023/03/21 02:14:33;;;;;;;10.10;7.33;;;;;;;4.23;100.00;96371.63;5075141;28;20468;-76
2023/03/21 02:17:30;;;;;;;8.90;7.67;;;;;;;3.82;100.00;96301.56;5075230;28;20923;-76
2023/03/21 02:20:13;;;;;;;6.53;5.83;;;;;;;4.17;100.00;96363.06;5074011;28;20553;-76
2023/03/21 02:23:14;;;;;;;7.13;6.00;;;;;;;4.26;100.00;96353.50;5075063;28;20450;-76
2023/03/21 02:25:59;;;;;;;13.07;7.00;;;;;;;4.22;100.00;96359.59;5055159;28;20467;-76
2023/03/21 02:28:54;;;;;;;7.50;5.93;;;;;;;4.13;100.00;96339.31;5075246;28;20445;-76
2023/03/21 02:31:21;;;;;;;7.30;5.43;;;;;;;4.40;100.00;96366.66;5025245;28;20513;-76
2023/03/21 02:34:00;;;;;;;6.10;5.50;;;;;;;4.41;100.00;96371.63;5071168;28;21418;-76
2023/03/21 02:36:27;;;;;;;5.77;5.37;;;;;;;4.29;100.00;96360.03;5074871;28;20928;-76
2023/03/21 02:39:06;;;;;;;6.40;5.73;;;;;;;3.64;100.00;96299.75;5058118;28;20431;-76
2023/03/21 02:41:49;;;;;;;9.00;7.83;;;;;;;3.71;100.00;96316.63;5074769;28;20431;-76
2023/03/21 02:44:52;;;;;;;8.17;7.37;;;;;;;4.00;100.00;96344.47;5059183;28;20436;-76
2023/03/21 02:47:40;;;;;;;11.20;8.77;;;;;;;4.08;100.00;96365.53;5075001;28;20439;-76
2023/03/21 02:50:17;;;;;;;9.40;8.33;;;;;;;3.82;100.00;96319.88;5058445;28;20522;-76
2023/03/21 02:52:47;;;;;;;7.83;7.03;;;;;;;4.09;100.00;96361.09;5075179;28;20872;-76
2023/03/21 02:55:20;;;;;;;7.27;6.57;;;;;;;3.93;100.00;96342.22;5058189;28;20813;-76
2023/03/21 02:57:57;;;;;;;13.13;8.10;;;;;;;3.91;100.00;96362.66;5074428;28;20458;-76
2023/03/21 03:00:37;;;;;;;7.70;6.90;;;;;;;3.83;100.00;96364.03;5059642;28;20466;-76
2023/03/21 03:03:05;;;;;;;10.70;6.23;;;;;;;3.74;100.00;96320.50;5074461;28;20526;-76
2023/03/21 03:05:49;;;;;;;7.37;6.00;;;;;;;3.85;100.00;96345.47;5092663;28;20848;-76
2023/03/21 03:08:26;;;;;;;7.63;6.50;;;;;;;3.86;100.00;96353.00;5074231;28;20431;-76
2023/03/21 03:11:27;;;;;;;9.97;7.17;;;;;;;3.77;100.00;96352.09;5074326;28;20530;-76
2023/03/21 03:14:01;;;;;;;7.60;6.47;;;;;;;3.79;100.00;96357.84;5074327;28;20435;-76
2023/03/21 03:17:17;;;;;;;6.70;6.00;;;;;;;3.58;100.00;96319.16;5060470;28;20427;-76
2023/03/21 03:19:56;;;;;;;7.70;6.80;;;;;;;3.82;100.00;96357.25;5073357;28;20570;-76
2023/03/21 03:22:30;;;;;;;8.67;6.87;;;;;;;3.80;100.00;96356.78;5074310;28;20478;-76
2023/03/21 03:25:22;;;;;;;7.17;5.73;;;;;;;3.39;100.00;96309.47;5057513;28;20484;-76
2023/03/21 03:28:08;;;;;;;9.97;6.27;;;;;;;3.72;100.00;96359.22;5060214;28;20507;-76
2023/03/21 03:30:37;;;;;;;8.40;6.10;;;;;;;3.70;100.00;96359.50;5057586;28;20466;-76
2023/03/21 03:33:16;;;;;;;6.83;6.17;;;;;;;3.43;100.00;96313.06;5074364;28;20451;-76
2023/03/21 03:35:45;;;;;;;7.00;6.13;;;;;;;3.75;100.00;96362.06;5058030;28;20534;-76
2023/03/21 03:38:26;;;;;;;6.50;5.70;;;;;;;3.42;100.00;96327.19;5076888;28;20416;-76
2023/03/21 03:41:02;;;;;;;7.80;6.13;;;;;;;3.30;100.00;96300.69;5057634;28;20452;-76
2023/03/21 03:43:58;;;;;;;6.80;5.40;;;;;;;3.67;100.00;96360.06;5076832;28;20435;-76
2023/03/21 03:46:41;;;;;;;10.73;5.20;;;;;;;3.67;100.00;96361.91;5074033;28;20554;-76
2023/03/21 03:49:20;;;;;;;5.80;4.87;;;;;;;3.60;100.00;96343.16;5054172;28;20494;-76
2023/03/21 03:52:10;;;;;;;8.90;5.40;;;;;;;3.68;100.00;96353.00;5071591;28;20442;-76
2023/03/21 03:54:45;;;;;;;5.80;5.20;;;;;;;3.40;100.00;96303.16;5058568;28;20439;-76
2023/03/21 03:57:13;;;;;;;7.60;5.80;;;;;;;3.61;100.00;96329.06;5060487;28;20435;-76
2023/03/21 03:59:42;;;;;;;6.70;5.70;;;;;;;3.64;100.00;96333.72;5078372;28;21031;-76
2023/03/21 04:02:28;;;;;;;5.87;4.60;;;;;;;3.85;100.00;96356.69;5096705;28;20521;-76
2023/03/21 04:04:56;;;;;;;6.80;5.17;;;;;;;3.72;100.00;96330.47;5061524;28;20442;-76
2023/03/21 04:07:24;;;;;;;5.83;5.33;;;;;;;3.96;100.00;96359.94;5077865;28;20948;-76
2023/03/21 04:09:52;;;;;;;6.70;5.40;;;;;;;3.70;100.00;96322.91;5057702;28;20471;-76
2023/03/21 04:12:19;;;;;;;6.37;5.00;;;;;;;3.99;100.00;96366.44;5071219;28;20474;-76
2023/03/21 04:15:10;;;;;;;5.40;4.90;;;;;;;3.96;100.00;96346.88;5080285;28;20435;-76
2023/03/21 04:17:41;;;;;;;5.50;5.00;;;;;;;4.05;100.00;96371.34;5061625;28;20504;-76
2023/03/21 04:20:08;;;;;;;5.90;5.27;;;;;;;3.70;100.00;96316.91;5076458;28;20463;-76
2023/03/21 04:22:44;;;;;;;5.00;4.60;;;;;;;3.87;100.00;96348.56;5077492;28;20561;-76
2023/03/21 04:25:13;;;;;;;5.23;4.77;;;;;;;3.73;100.00;96335.41;5077494;28;20921;-76
2023/03/21 04:27:48;;;;;;;6.83;5.20;;;;;;;3.49;100.00;96293.66;5077469;28;20445;-76
2023/03/21 04:30:35;;;;;;;6.40;5.80;;;;;;;3.89;100.00;96361.38;5079834;28;20459;-76
2023/03/21 04:33:12;;;;;;;5.70;5.10;;;;;;;3.82;100.00;96349.41;5061725;28;20451;-76
2023/03/21 04:35:44;;;;;;;6.03;4.90;;;;;;;3.63;100.00;96332.16;5077012;28;20972;-76
2023/03/21 04:38:12;;;;;;;7.00;5.30;;;;;;;3.62;100.00;96339.25;5076934;28;20439;-76
2023/03/21 04:40:39;;;;;;;5.33;4.83;;;;;;;3.18;100.00;96298.47;5076933;28;20451;-76
2023/03/21 04:43:06;;;;;;;7.17;5.17;;;;;;;2.90;100.00;96255.69;5060505;28;20431;-76
2023/03/21 04:45:36;;;;;;;5.80;5.30;;;;;;;3.14;100.00;96300.09;5056723;28;20460;-76
2023/03/21 04:48:03;;;;;;;10.93;5.33;;;;;;;3.38;100.00;96317.59;5088235;28;20481;-76
2023/03/21 04:50:31;;;;;;;5.43;4.60;;;;;;;3.58;100.00;96353.91;5076697;28;20455;-76
2023/03/21 04:52:58;;;;;;;13.67;11.97;;;;;;;3.52;100.00;96337.53;5076715;28;20752;-76
2023/03/21 04:55:26;;;;;;;9.93;8.80;;;;;;;3.09;100.00;96273.25;5076549;28;20446;-76
2023/03/21 04:57:53;;;;;;;11.90;9.23;;;;;;;3.24;100.00;96304.41;5060187;28;20438;-76
2023/03/21 05:00:21;;;;;;;10.17;8.60;;;;;;;3.25;100.00;96319.81;5059723;28;20478;-76
2023/03/21 05:02:48;;;;;;;15.33;8.53;;;;;;;3.07;100.00;96291.81;5059983;28;20947;-76
2023/03/21 05:05:15;;;;;;;11.47;7.50;;;;;;;3.41;100.00;96343.91;5059907;28;20817;-76
2023/03/21 05:07:42;;;;;;;6.60;6.00;;;;;;;3.15;100.00;96303.47;5057090;28;20527;-76
2023/03/21 05:10:10;;;;;;;6.40;5.80;;;;;;;3.46;100.00;96353.53;5076303;28;20829;-76
2023/03/21 05:12:40;;;;;;;6.87;6.13;;;;;;;3.46;100.00;96362.16;5060016;28;20852;-76
2023/03/21 05:15:08;;;;;;;8.10;6.13;;;;;;;3.10;100.00;96327.81;5059644;28;20493;-76
2023/03/21 05:17:36;;;;;;;9.03;7.30;;;;;;;2.84;100.00;96316.09;5076417;28;20427;-76
2023/03/21 05:20:23;;;;;;;6.73;6.13;;;;;;;2.76;100.00;96340.16;5075429;28;20463;-76
2023/03/21 05:22:50;;;;;;;10.20;8.13;;;;;;;2.60;100.00;96327.25;5030057;28;20451;-76
2023/03/21 05:25:20;;;;;;;13.30;8.97;;;;;;;2.90;100.00;96347.06;5018218;28;20475;-76
2023/03/21 05:28:06;;;;;;;14.03;8.93;;;;;;;2.79;100.00;96323.94;5034661;28;20437;-76
2023/03/21 05:30:34;;;;;;;8.53;7.27;;;;;;;2.99;100.00;96354.31;5051314;28;20900;-76
2023/03/21 05:33:01;;;;;;;9.90;7.80;;;;;;;2.74;100.00;96316.94;5035307;28;20437;-76
2023/03/21 05:35:28;;;;;;;8.10;6.17;;;;;;;2.81;100.00;96333.09;5018043;28;20436;-76
2023/03/21 05:37:57;;;;;;;6.80;6.07;;;;;;;3.12;100.00;96366.72;5034504;28;20804;-76
2023/03/21 05:40:27;;;;;;;8.40;6.17;;;;;;;2.97;100.00;96344.94;5018249;28;20465;-76
2023/03/21 05:42:59;;;;;;;7.23;6.53;;;;;;;3.04;100.00;96335.97;5050995;28;20452;-76
2023/03/21 05:45:26;;;;;;;7.53;6.83;;;;;;;3.26;100.00;96375.44;5050942;28;20482;-76
2023/03/21 05:47:54;;;;;;;10.10;6.90;;;;;;;3.19;100.00;96369.75;5034924;28;20441;-76
2023/03/21 05:50:25;;;;;;;8.60;7.80;;;;;;;2.89;100.00;96332.47;5034076;28;20556;-76
2023/03/21 05:53:06;;;;;;;6.43;4.90;;;;;;;2.99;100.00;96359.53;5034317;28;20445;-76
2023/03/21 05:55:33;;;;;;;6.60;5.90;;;;;;;2.88;100.00;96345.81;5050607;28;20511;-76
2023/03/21 05:58:01;;;;;;;8.13;7.23;;;;;;;2.95;100.00;96336.59;5037707;28;20441;-77
2023/03/21 06:00:29;;;;;;;9.10;7.73;;;;;;;3.03;100.00;96335.19;5067473;28;20822;-76
2023/03/21 06:03:19;;;;;;;8.50;7.70;;;;;;;3.24;100.00;96349.59;5100347;28;20442;-77
2023/03/21 06:06:04;;;;;;;14.10;8.77;;;;;;;3.48;100.00;96372.34;5086285;28;20478;-77
2023/03/21 06:08:47;;;;;;;9.73;7.73;;;;;;;3.43;100.00;96375.00;5071027;28;20474;-77
2023/03/21 06:11:27;;;;;;;12.43;8.70;;;;;;;3.43;100.00;96365.31;5085252;28;20455;-77
2023/03/21 06:14:15;;;;;;;8.27;7.57;;;;;;;3.54;100.00;96366.75;5094873;28;20440;-77
2023/03/21 06:16:44;;;;;;;10.17;8.43;;;;;;;3.40;100.00;96337.16;5065743;28;20439;-77
2023/03/21 06:19:11;;;;;;;10.90;9.33;;;;;;;2.67;100.00;96217.31;5074525;28;20562;-77
2023/03/21 06:21:56;;;;;;;11.53;8.50;;;;;;;3.83;100.00;96369.28;5082714;28;20418;-77
2023/03/21 06:24:24;;;;;;;13.60;11.30;;;;;;;3.81;100.00;96350.47;5079465;28;20459;-77
2023/03/21 06:26:50;;;;;;;14.00;10.90;;;;;;;3.97;100.00;96358.13;5059149;28;20866;-77
2023/03/21 06:29:17;;;;;;;10.33;9.17;;;;;;;3.80;100.00;96322.78;5059596;28;20440;-77
2023/03/21 06:31:47;;;;;;;11.40;8.90;;;;;;;3.70;100.00;96291.53;5053488;28;20996;-76
2023/03/21 06:34:15;;;;;;;9.83;8.30;;;;;;;4.05;100.00;96352.25;5079163;28;20443;-77
2023/03/21 06:36:43;;;;;;;12.13;10.77;;;;;;;4.07;100.00;96343.06;5074718;28;20446;-75
2023/03/21 06:39:12;;;;;;;18.67;13.33;;;;;;;4.25;100.00;96359.03;5074750;28;20435;-75
2023/03/21 06:41:39;;;;;;;15.63;13.80;;;;;;;4.51;100.00;96393.44;5058555;28;20439;-75
2023/03/21 06:44:06;;;;;;;15.17;13.70;;;;;;;4.44;100.00;96368.44;5075002;28;20489;-75
2023/03/21 06:46:41;;;;;;;13.83;12.27;;;;;;;4.74;100.00;96403.81;5092954;28;20501;-75
2023/03/21 06:49:08;;;;;;;16.23;10.57;;;;;;;4.53;100.00;96365.13;5075463;28;20440;-74
2023/03/21 06:51:34;;;;;;;19.00;14.33;;;;;;;4.63;100.00;96373.63;5076967;28;20901;-75
2023/03/21 06:54:08;;;;;;;17.67;10.53;;;;;;;5.04;100.00;96420.88;5079419;28;20495;-75
2023/03/21 06:56:40;;;;;;;8.20;7.40;;;;;;;4.72;100.00;96369.28;5094741;28;20427;-75
2023/03/21 06:59:10;;;;;;;6.60;5.93;;;;;;;5.13;100.00;96426.25;5094917;28;20796;-75
2023/03/21 07:01:49;;;;;;;8.77;7.00;;;;;;;4.99;100.00;96386.91;5094924;28;20433;-75
2023/03/21 07:04:15;;;;;;;12.13;5.80;;;;;;;5.17;100.00;96429.81;5077436;28;20440;-74
2023/03/21 07:06:42;;;;;;;6.20;5.63;;;;;;;5.06;100.00;96428.44;5093983;28;20477;-75
2023/03/21 07:09:09;;;;;;;7.13;6.00;;;;;;;5.13;100.00;96433.31;5093983;28;20438;-75
2023/03/21 07:11:37;;;;;;;11.13;5.60;;;;;;;5.22;100.00;96426.38;5069582;28;20431;-75
2023/03/21 07:14:05;;;;;;;10.57;5.70;;;;;;;5.21;100.00;96424.81;5073703;28;20987;-75
2023/03/21 07:16:32;;;;;;;9.07;6.27;;;;;;;5.06;100.00;96391.75;5057141;28;20442;-75
2023/03/21 07:18:58;;;;;;;9.83;5.90;;;;;;;5.34;100.00;96429.25;5068793;28;20427;-75
2023/03/21 07:21:25;;;;;;;10.80;8.10;;;;;;;5.53;100.00;96439.69;5073675;28;21014;-75
2023/03/21 07:23:52;;;;;;;9.10;7.73;;;;;;;5.30;100.00;96397.63;5073680;28;20523;-75
2023/03/21 07:26:19;;;;;;;7.40;6.50;;;;;;;5.78;100.00;96444.47;5092014;28;20452;-75
2023/03/21 07:28:46;;;;;;;6.87;6.27;;;;;;;5.72;100.00;96429.88;5057038;28;20532;-75
2023/03/21 07:31:15;;;;;;;7.07;6.37;;;;;;;5.98;100.00;96448.53;5094863;28;21051;-75
2023/03/21 07:33:42;;;;;;;7.00;5.07;;;;;;;5.97;100.00;96418.13;5095846;28;20429;-75
2023/03/21 07:36:11;;;;;;;5.60;4.57;;;;;;;6.37;100.00;96455.88;5077598;28;20505;-75
2023/03/21 07:38:39;;;;;;;9.37;5.07;;;;;;;6.44;100.00;96448.38;5060945;28;21043;-75
2023/03/21 07:41:06;;;;;;;8.30;4.80;;;;;;;6.40;100.00;96421.16;5077546;28;20975;-75
2023/03/21 07:43:34;;;;;;;5.23;4.53;;;;;;;6.69;100.00;96446.28;5077440;28;20527;-75
2023/03/21 07:46:08;;;;;;;12.83;7.30;;;;;;;6.87;100.00;96455.81;5061811;28;20527;-75
2023/03/21 07:48:36;;;;;;;8.63;7.50;;;;;;;6.91;100.00;96461.25;5077407;28;20435;-75
2023/03/21 07:51:03;;;;;;;5.67;4.20;;;;;;;6.85;100.00;96428.28;5077320;28;20500;-75
2023/03/21 07:53:29;;;;;;;8.90;5.57;;;;;;;7.03;100.00;96454.38;5060640;28;20428;-75
2023/03/21 07:55:56;;;;;;;6.67;4.30;;;;;;;6.98;100.00;96420.34;5095522;28;20454;-75
2023/03/21 07:58:27;;;;;;;6.57;5.97;;;;;;;7.17;100.00;96432.50;5077789;28;20496;-75
2023/03/21 08:00:55;;;;;;;5.77;4.93;;;;;;;7.41;100.00;96433.72;5077405;28;20860;-75
2023/03/21 08:03:22;;;;;;;5.27;4.20;;;;;;;7.57;100.00;96434.09;5077337;28;20794;-75
2023/03/21 08:05:49;;;;;;;9.17;4.40;;;;;;;7.81;100.00;96435.56;5095368;28;20429;-75
2023/03/21 08:08:16;;;;;;;4.40;3.50;;;;;;;7.84;100.00;96432.31;5095191;28;20473;-75
2023/03/21 08:10:43;;;;;;;6.47;3.63;;;;;;;8.10;100.00;96454.22;5076844;28;20459;-75
2023/03/21 08:13:11;;;;;;;4.80;3.90;;;;;;;7.99;100.00;96424.00;5077221;28;20433;-75
2023/03/21 08:15:40;;;;;;;5.33;3.30;;;;;;;8.09;100.00;96428.22;5095061;28;20518;-75
2023/03/21 08:18:08;;;;;;;4.23;3.83;;;;;;;8.33;100.00;96459.38;5060406;28;20427;-75
2023/03/21 08:20:35;;;;;;;8.37;4.00;;;;;;;8.30;100.00;96466.06;5075287;28;20463;-75
2023/03/21 08:23:02;;;;;;;5.67;5.17;;;;;;;8.19;100.00;96462.16;5076831;28;20530;-75
2023/03/21 08:25:29;;;;;;;4.80;3.83;;;;;;;8.04;100.00;96431.78;5060396;28;20849;-75
2023/03/21 08:27:56;;;;;;;3.80;3.40;;;;;;;8.29;100.00;96464.50;5076620;28;20463;-75
2023/03/21 08:30:25;;;;;;;5.20;3.80;;;;;;;8.29;100.00;96456.59;5076771;28;20905;-75
2023/03/21 08:32:56;;;;;;;6.40;4.90;;;;;;;8.29;100.00;96419.72;5060064;28;20431;-75
2023/03/21 08:35:26;;;;;;;6.93;3.70;;;;;;;8.94;100.00;96454.94;5076527;28;20806;-75
2023/03/21 08:37:53;;;;;;;3.83;3.13;;;;;;;8.63;100.00;96429.53;5076429;28;20435;-75
2023/03/21 08:40:20;;;;;;;3.50;3.00;;;;;;;8.83;100.00;96436.03;5076322;28;20532;-75
2023/03/21 08:42:46;;;;;;;9.43;3.70;;;;;;;8.74;100.00;96422.84;5075822;28;20458;-75
2023/03/21 08:45:15;;;;;;;5.10;2.60;;;;;;;8.91;100.00;96442.38;5094501;28;20858;-74
2023/03/21 08:47:42;;;;;;;7.33;5.40;;;;;;;8.65;100.00;96427.34;5059561;28;20447;-74
2023/03/21 08:50:13;;;;;;;5.40;3.10;;;;;;;8.73;100.00;96444.25;5094313;28;20446;-74
2023/03/21 08:52:40;;;;;;;5.33;2.90;;;;;;;8.61;100.00;96415.88;5076285;28;20447;-74
2023/03/21 08:55:08;;;;;;;3.27;2.70;;;;;;;8.86;100.00;96446.72;5094353;28;20419;-74
2023/03/21 08:57:35;;;;;;;3.60;2.37;;;;;;;8.59;100.00;96445.19;5059555;28;20812;-74
2023/03/21 09:00:13;;;;;;;5.30;3.13;;;;;;;8.61;100.00;96438.81;5076033;28;20529;-74
2023/03/21 09:02:41;;;;;;;5.80;3.73;;;;;;;8.84;100.00;96424.41;5076560;28;20848;-75
2023/03/21 09:05:10;;;;;;;4.53;3.13;;;;;;;8.67;100.00;96398.03;5094168;28;20963;-75
2023/03/21 09:07:38;;;;;;;5.47;3.53;;;;;;;8.94;100.00;96420.66;5075556;28;20463;-75
2023/03/21 09:10:09;;;;;;;14.80;4.03;;;;;;;9.22;100.00;96439.53;5093990;28;20546;-75
2023/03/21 09:12:53;;;;;;;3.83;3.47;;;;;;;9.19;100.00;96433.78;5093942;28;20423;-75
2023/03/21 09:15:23;;;;;;;4.33;3.97;;;;;;;9.33;100.00;96436.22;5093992;28;20423;-75
2023/03/21 09:17:52;;;;;;;10.90;3.90;;;;;;;9.46;100.00;96437.13;5076052;28;20420;-75
2023/03/21 09:20:29;;;;;;;6.77;3.23;;;;;;;9.34;100.00;96408.75;5075167;28;20572;-75
2023/03/21 09:22:57;;;;;;;7.07;3.67;;;;;;;9.50;100.00;96438.06;5055993;28;20496;-75
2023/03/21 09:25:24;;;;;;;2.60;2.40;;;;;;;9.04;100.00;96407.91;5085532;28;20763;-75
2023/03/21 09:27:52;;;;;;;7.87;3.13;;;;;;;9.42;100.00;96429.06;5087437;28;20465;-75
2023/03/21 09:30:21;;;;;;;4.47;3.80;;;;;;;9.77;100.00;96428.94;5075345;28;20808;-75
2023/03/21 09:32:52;;;;;;;3.80;3.40;;;;;;;9.19;100.00;96402.13;5075477;28;20984;-75
2023/03/21 09:35:19;;;;;;;8.80;3.93;;;;;;;9.56;100.00;96428.09;5093503;28;21015;-75
2023/03/21 09:37:47;;;;;;;6.13;4.00;;;;;;;9.66;100.00;96390.78;5075309;28;20431;-75
2023/03/21 09:40:28;;;;;;;5.93;3.33;;;;;;;9.97;100.00;96407.09;5075238;28;20463;-75
2023/03/21 09:43:15;;;;;;;4.90;3.77;;;;;;;10.13;100.00;96432.94;5075332;28;20507;-75
2023/03/21 09:45:53;;;;;;;4.83;2.80;;;;;;;10.08;100.00;96431.25;5074524;28;20443;-75
2023/03/21 09:48:49;;;;;;;7.00;3.43;;;;;;;10.10;100.00;96417.72;5058495;28;20491;-75
2023/03/21 09:51:27;;;;;;;4.80;3.50;;;;;;;9.98;100.00;96403.34;5074960;28;20455;-75
2023/03/21 09:53:56;;;;;;;8.13;3.80;;;;;;;10.08;100.00;96391.63;5075060;28;20432;-75
2023/03/21 09:56:24;;;;;;;6.27;3.33;;;;;;;10.05;100.00;96403.63;5075124;28;20435;-75
2023/03/21 09:58:58;;;;;;;3.90;3.00;;;;;;;10.17;100.00;96428.59;5058321;28;20812;-75
2023/03/21 10:01:28;;;;;;;5.23;3.13;;;;;;;10.42;100.00;96421.59;5074854;28;20466;-75
2023/03/21 10:03:59;;;;;;;5.50;3.90;;;;;;;10.38;100.00;96416.16;5075122;28;20812;-75
2023/03/21 10:06:30;;;;;;;6.00;3.37;;;;;;;10.53;100.00;96420.09;5074660;28;20546;-75
2023/03/21 10:09:06;;;;;;;6.03;3.37;;;;;;;10.69;100.00;96410.50;5054637;28;20464;-75
2023/03/21 10:11:49;;;;;;;4.77;3.67;;;;;;;10.58;100.00;96409.34;5079994;28;20791;-75
2023/03/21 10:14:31;;;;;;;5.23;3.37;;;;;;;10.80;100.00;96406.34;5075136;28;20424;-75
2023/03/21 10:17:03;;;;;;;4.63;4.00;;;;;;;10.87;100.00;96389.97;5057981;28;20427;-75
2023/03/21 10:19:29;;;;;;;3.20;2.90;;;;;;;11.07;100.00;96405.00;5073643;28;20459;-75
2023/03/21 10:21:56;;;;;;;4.87;3.17;;;;;;;10.89;100.00;96361.31;5092686;28;20424;-75
2023/03/21 10:24:30;;;;;;;3.13;2.77;;;;;;;11.05;100.00;96395.84;5075290;28;20453;-75
2023/03/21 10:26:57;;;;;;;4.10;3.70;;;;;;;10.53;100.00;96359.31;5074534;28;20489;-75
2023/03/21 10:29:29;;;;;;;4.30;3.47;;;;;;;11.03;100.00;96388.22;5092492;28;20514;-75
2023/03/21 10:31:56;;;;;;;5.27;3.90;;;;;;;10.93;100.00;96362.19;5092536;28;20420;-75
2023/03/21 10:34:35;;;;;;;8.13;3.97;;;;;;;11.09;100.00;96375.59;5092441;28;20426;-75
2023/03/21 10:37:04;;;;;;;8.50;3.30;;;;;;;10.78;100.00;96334.50;5072598;28;20467;-75
2023/03/21 10:39:42;;;;;;;3.90;3.47;;;;;;;10.55;100.00;96372.97;5077651;28;20470;-75
2023/03/21 10:42:16;;;;;;;6.33;3.07;;;;;;;10.90;100.00;96362.84;5112721;28;20437;-75
2023/03/21 10:44:50;;;;;;;6.17;2.93;;;;;;;10.87;100.00;96352.94;5112675;28;20424;-75
2023/03/21 10:47:23;;;;;;;3.23;2.90;;;;;;;10.29;100.00;96265.63;5094520;28;20917;-75
2023/03/21 10:49:50;;;;;;;2.10;1.90;;;;;;;10.97;100.00;96362.31;5112502;28;20500;-75
2023/03/21 10:52:37;;;;;;;5.77;2.53;;;;;;;10.70;100.00;96324.78;5094356;28;20446;-75
2023/03/21 10:55:17;;;;;;;5.43;3.03;;;;;;;10.99;100.00;96354.84;5112598;28;20427;-75
2023/03/21 10:57:46;;;;;;;3.90;2.43;;;;;;;11.20;100.00;96364.22;5077452;28;20491;-75
2023/03/21 11:00:20;;;;;;;4.17;2.77;;;;;;;11.27;100.00;96339.88;5094071;28;20451;-75
2023/03/21 11:02:50;;;;;;;4.00;2.60;;;;;;;11.59;100.00;96361.28;5094158;28;20448;-75
2023/03/21 11:05:33;;;;;;;4.63;2.67;;;;;;;11.49;100.00;96328.88;5093621;28;21092;-75
2023/03/21 11:08:17;;;;;;;3.03;2.47;;;;;;;11.66;100.00;96346.38;5094152;28;20494;-75
2023/03/21 11:11:01;;;;;;;3.27;2.53;;;;;;;11.79;100.00;96355.91;5093413;28;20963;-75
2023/03/21 11:13:33;;;;;;;2.67;2.17;;;;;;;11.73;100.00;96357.19;5073850;28;20462;-75
2023/03/21 11:16:24;;;;;;;3.03;2.83;;;;;;;11.78;100.00;96349.03;5095618;28;20529;-75
2023/03/21 11:18:55;;;;;;;3.27;2.13;;;;;;;12.04;100.00;96346.03;5092420;28;20811;-75
2023/03/21 11:21:26;;;;;;;2.17;1.87;;;;;;;11.89;100.00;96330.06;5057137;28;20452;-75
2023/03/21 11:23:56;;;;;;;2.60;2.40;;;;;;;12.40;100.00;96355.00;5091823;28;20419;-75
2023/03/21 11:26:35;;;;;;;2.87;2.63;;;;;;;12.67;100.00;96321.63;5091880;28;20434;-75
2023/03/21 11:29:19;;;;;;;3.30;2.67;;;;;;;12.93;98.52;96342.38;5056880;28;20890;-75
2023/03/21 11:31:47;;;;;;;3.30;2.20;;;;;;;12.73;99.45;96318.38;5091868;28;20443;-75
2023/03/21 11:34:31;;;;;;;4.13;2.40;;;;;;;13.19;97.63;96348.00;5073791;28;20470;-75
2023/03/21 11:37:01;;;;;;;4.80;2.07;;;;;;;13.64;97.34;96344.13;5073567;28;20435;-75
2023/03/21 11:39:38;;;;;;;3.00;1.73;;;;;;;13.67;93.51;96329.38;5056923;28;20520;-75
2023/03/21 11:42:25;;;;;;;2.77;1.73;;;;;;;13.76;94.40;96336.06;5091705;28;20855;-75
2023/03/21 11:45:00;;;;;;;3.83;3.10;;;;;;;13.45;91.98;96336.09;5056910;28;20484;-75
2023/03/21 11:47:27;;;;;;;3.87;2.60;;;;;;;13.30;92.98;96287.19;5091593;28;20793;-75
2023/03/21 11:49:55;;;;;;;4.00;2.80;;;;;;;13.54;92.29;96279.03;5056795;28;20455;-75
2023/03/21 11:52:40;;;;;;;2.40;2.20;;;;;;;13.99;90.44;96330.84;5073456;28;20430;-75
2023/03/21 11:55:10;;;;;;;3.77;2.20;;;;;;;13.77;90.52;96326.22;5073422;28;20492;-75
2023/03/21 11:57:53;;;;;;;4.97;2.37;;;;;;;14.02;88.41;96313.44;5073350;28;20935;-75
2023/03/21 12:00:56;;;;;;;4.30;2.50;;;;;;;14.15;88.34;96291.69;5073817;28;20439;-75